Time;durP1;ratioP1;P1;durP2;ratioP2;P2;SDS_P1;SDS_P2;PMS_P1;PMS_P2;Temp;Humidity;BMP_temperature;BMP_pressure;BME280_temperature;BME280_humidity;BME280_pressure;Samples;Min_cycle;Max_cycle;Signal;HPM_P1;HPM_P2
2024/01/21 00:00:30;;;;;;;6.43;4.20;;;0.50;99.90;;;;;;4975822;28;20308;-54
2024/01/21 00:02:56;;;;;;;6.33;4.20;;;0.40;99.90;;;;;;4976043;28;20189;-50
2024/01/21 00:05:21;;;;;;;5.73;4.30;;;0.50;99.90;;;;;;4975865;28;20178;-50
2024/01/21 00:07:47;;;;;;;7.07;4.30;;;0.40;99.90;;;;;;4975684;28;20288;-54
2024/01/21 00:10:12;;;;;;;6.97;4.80;;;0.50;99.90;;;;;;4975593;28;20181;-50
2024/01/21 00:12:38;;;;;;;6.17;4.57;;;0.40;99.90;;;;;;4975674;28;20661;-50
2024/01/21 00:15:04;;;;;;;7.20;4.67;;;0.30;99.90;;;;;;4975441;28;20185;-54
2024/01/21 00:17:30;;;;;;;6.20;4.30;;;0.30;99.90;;;;;;4975606;28;20203;-52
2024/01/21 00:19:59;;;;;;;5.87;4.13;;;0.30;99.90;;;;;;4975625;28;20695;-50
2024/01/21 00:22:24;;;;;;;7.07;4.33;;;0.30;99.90;;;;;;4975445;28;20333;-52
2024/01/21 00:24:50;;;;;;;5.77;4.23;;;0.30;99.90;;;;;;4975433;28;20698;-53
2024/01/21 00:27:16;;;;;;;6.57;4.70;;;0.30;99.90;;;;;;4975372;28;20634;-51
2024/01/21 00:29:41;;;;;;;7.33;4.30;;;0.30;99.90;;;;;;4975243;28;20184;-51
2024/01/21 00:32:07;;;;;;;5.57;4.10;;;0.20;99.90;;;;;;4975513;28;20588;-50
2024/01/21 00:34:32;;;;;;;6.77;4.80;;;0.30;99.90;;;;;;4975199;28;20217;-49
2024/01/21 00:36:58;;;;;;;6.77;4.80;;;0.40;99.90;;;;;;4975150;28;20182;-52
2024/01/21 00:39:24;;;;;;;5.43;4.20;;;0.30;99.90;;;;;;4975162;28;20204;-52
2024/01/21 00:41:49;;;;;;;6.60;4.70;;;0.30;99.90;;;;;;4975092;28;20271;-49
2024/01/21 00:44:16;;;;;;;6.50;4.57;;;0.30;99.90;;;;;;4974994;28;20241;-52
2024/01/21 00:46:41;;;;;;;6.27;4.50;;;0.30;99.90;;;;;;4957873;28;20245;-51
2024/01/21 00:49:07;;;;;;;7.00;4.80;;;0.30;99.90;;;;;;4975078;28;20658;-51
2024/01/21 00:51:33;;;;;;;7.33;5.27;;;0.30;99.90;;;;;;4975130;28;20547;-53
2024/01/21 00:53:58;;;;;;;7.73;5.20;;;0.30;99.90;;;;;;4974937;28;20181;-52
2024/01/21 00:56:24;;;;;;;7.87;5.03;;;0.40;99.90;;;;;;4974871;28;20268;-53
2024/01/21 00:58:49;;;;;;;7.53;5.17;;;0.40;99.90;;;;;;4974641;28;20185;-50
2024/01/21 01:01:15;;;;;;;7.63;5.20;;;0.50;99.90;;;;;;4974757;28;20242;-54
2024/01/21 01:03:41;;;;;;;6.47;4.90;;;0.60;99.90;;;;;;4974765;28;20189;-49
2024/01/21 01:06:07;;;;;;;7.23;4.87;;;0.60;99.90;;;;;;4974580;28;20304;-51
2024/01/21 01:08:32;;;;;;;7.83;5.40;;;0.70;99.90;;;;;;4974705;28;20610;-50
2024/01/21 01:10:58;;;;;;;8.47;5.50;;;0.80;99.90;;;;;;4974685;28;20185;-50
2024/01/21 01:13:23;;;;;;;8.53;5.50;;;0.80;99.90;;;;;;4974527;28;20177;-49
2024/01/21 01:15:50;;;;;;;7.57;5.23;;;0.90;99.90;;;;;;4974570;28;20244;-53
2024/01/21 01:18:16;;;;;;;6.77;5.17;;;0.90;99.90;;;;;;4974641;28;20225;-55
2024/01/21 01:20:41;;;;;;;8.47;6.37;;;0.90;99.90;;;;;;4974538;28;20208;-50
2024/01/21 01:23:07;;;;;;;7.80;5.47;;;1.00;99.90;;;;;;4974600;28;20174;-52
2024/01/21 01:25:33;;;;;;;10.83;6.13;;;1.00;99.90;;;;;;4974358;28;20267;-50
2024/01/21 01:27:58;;;;;;;8.33;5.53;;;0.90;99.90;;;;;;4974308;28;20182;-51
2024/01/21 01:30:24;;;;;;;9.10;5.57;;;0.90;99.90;;;;;;4974482;28;20181;-53
2024/01/21 01:32:49;;;;;;;8.10;5.47;;;0.90;99.90;;;;;;4974466;28;20192;-53
2024/01/21 01:35:15;;;;;;;8.03;5.90;;;0.90;99.90;;;;;;4974231;28;20181;-53
2024/01/21 01:37:41;;;;;;;8.80;6.27;;;1.00;99.90;;;;;;4974298;28;20176;-52
2024/01/21 01:40:07;;;;;;;9.13;5.80;;;1.00;99.90;;;;;;4974557;28;20217;-50
2024/01/21 01:42:33;;;;;;;8.47;6.17;;;1.10;99.90;;;;;;4973392;28;20213;-49
2024/01/21 01:45:00;;;;;;;8.20;5.70;;;1.10;99.90;;;;;;4974403;28;20181;-52
2024/01/21 01:47:26;;;;;;;9.50;6.50;;;1.10;99.90;;;;;;4974238;28;20187;-52
2024/01/21 01:49:54;;;;;;;8.37;5.90;;;1.00;99.90;;;;;;4974442;28;20182;-51
2024/01/21 01:52:19;;;;;;;9.40;6.00;;;1.10;99.90;;;;;;4974195;28;20193;-52
2024/01/21 01:54:46;;;;;;;8.23;5.90;;;1.20;99.90;;;;;;4974096;28;20252;-52
2024/01/21 01:57:15;;;;;;;7.60;5.93;;;1.20;99.90;;;;;;4973836;28;20208;-53
2024/01/21 01:59:41;;;;;;;9.07;5.97;;;1.40;99.90;;;;;;4974234;28;20579;-53
2024/01/21 02:02:06;;;;;;;8.27;6.37;;;1.30;99.90;;;;;;4974121;28;20232;-53
2024/01/21 02:04:33;;;;;;;8.20;5.77;;;1.30;99.90;;;;;;4973984;28;20184;-54
2024/01/21 02:06:59;;;;;;;8.60;6.17;;;1.40;99.90;;;;;;4974011;28;20552;-53
2024/01/21 02:09:25;;;;;;;8.57;5.93;;;1.40;99.90;;;;;;4973986;28;20181;-50
2024/01/21 02:11:50;;;;;;;8.40;5.50;;;1.30;99.90;;;;;;4973889;28;20189;-53
2024/01/21 02:14:16;;;;;;;8.77;5.83;;;1.30;99.90;;;;;;4974086;28;20193;-53
2024/01/21 02:16:42;;;;;;;7.67;5.77;;;1.30;99.90;;;;;;4974046;28;20539;-51
2024/01/21 02:19:23;;;;;;;7.87;5.93;;;1.40;99.90;;;;;;4973831;28;20182;-52
2024/01/21 02:21:48;;;;;;;9.13;5.90;;;1.40;99.90;;;;;;4973813;28;20208;-51
2024/01/21 02:24:14;;;;;;;8.37;5.83;;;1.40;99.90;;;;;;4973675;28;20185;-52
2024/01/21 02:26:40;;;;;;;8.17;5.97;;;1.40;99.90;;;;;;4973678;28;20177;-53
2024/01/21 02:29:05;;;;;;;9.67;6.27;;;1.30;99.90;;;;;;4973949;28;20184;-53
2024/01/21 02:31:31;;;;;;;7.60;5.30;;;1.30;99.90;;;;;;4973914;28;20190;-53
2024/01/21 02:33:56;;;;;;;8.73;5.73;;;1.40;99.90;;;;;;4973913;28;20260;-53
2024/01/21 02:36:22;;;;;;;8.57;5.70;;;1.30;99.90;;;;;;4973755;28;20256;-53
2024/01/21 02:38:48;;;;;;;7.07;6.00;;;1.30;99.90;;;;;;4956396;28;20251;-53
2024/01/21 02:41:13;;;;;;;7.93;5.30;;;1.40;99.90;;;;;;4973778;28;20217;-53
2024/01/21 02:43:39;;;;;;;7.43;5.17;;;1.40;99.90;;;;;;4973783;28;20188;-53
2024/01/21 02:46:05;;;;;;;7.93;5.13;;;1.30;99.90;;;;;;4973800;28;20189;-52
2024/01/21 02:48:30;;;;;;;7.97;5.10;;;1.30;99.90;;;;;;4973735;28;20217;-53
2024/01/21 02:50:56;;;;;;;7.80;5.30;;;1.50;99.90;;;;;;4973764;28;20527;-51
2024/01/21 02:53:21;;;;;;;7.60;5.00;;;1.50;99.90;;;;;;4973503;28;20193;-53
2024/01/21 02:55:47;;;;;;;6.37;4.87;;;1.50;99.90;;;;;;4977331;28;20204;-54
2024/01/21 02:58:14;;;;;;;8.40;5.43;;;1.50;99.90;;;;;;4977493;28;20543;-53
2024/01/21 03:00:39;;;;;;;7.00;5.27;;;1.50;99.90;;;;;;4976765;28;20236;-53
2024/01/21 03:03:05;;;;;;;6.23;4.30;;;1.40;99.90;;;;;;4959797;28;20284;-54
2024/01/21 03:05:31;;;;;;;6.30;4.97;;;1.50;99.90;;;;;;4977026;28;20223;-54
2024/01/21 03:07:56;;;;;;;6.40;4.80;;;1.40;99.90;;;;;;4976852;28;20504;-51
2024/01/21 03:10:22;;;;;;;6.27;4.53;;;1.50;99.90;;;;;;4959788;28;20232;-52
2024/01/21 03:12:48;;;;;;;6.27;4.60;;;1.50;99.90;;;;;;4977171;28;20185;-49
2024/01/21 03:15:13;;;;;;;7.03;4.40;;;1.60;99.90;;;;;;4977072;28;20181;-49
2024/01/21 03:17:39;;;;;;;6.40;4.80;;;1.70;99.90;;;;;;4977151;28;20261;-53
2024/01/21 03:20:05;;;;;;;7.40;5.10;;;1.70;99.90;;;;;;4976979;28;20273;-54
2024/01/21 03:22:31;;;;;;;6.10;4.70;;;1.60;99.90;;;;;;4976709;28;20238;-51
2024/01/21 03:24:58;;;;;;;6.40;5.10;;;1.70;99.90;;;;;;4977001;28;20610;-50
2024/01/21 03:27:24;;;;;;;8.70;5.10;;;1.70;99.90;;;;;;4976786;28;20200;-51
2024/01/21 03:29:50;;;;;;;6.13;4.60;;;1.70;99.90;;;;;;4976858;28;20642;-49
2024/01/21 03:32:16;;;;;;;7.10;4.67;;;1.70;99.90;;;;;;4976662;28;20248;-53
2024/01/21 03:34:43;;;;;;;5.90;5.03;;;1.70;99.90;;;;;;4976479;28;20276;-52
2024/01/21 03:37:09;;;;;;;7.20;4.77;;;1.80;99.90;;;;;;4976496;28;20268;-50
2024/01/21 03:39:34;;;;;;;7.00;4.80;;;1.90;99.90;;;;;;4976701;28;20240;-54
2024/01/21 03:42:00;;;;;;;7.07;4.77;;;1.90;99.90;;;;;;4976631;28;20209;-51
2024/01/21 03:44:26;;;;;;;5.87;4.83;;;1.90;99.90;;;;;;4976527;28;20511;-54
2024/01/21 03:46:51;;;;;;;6.87;4.80;;;1.90;99.90;;;;;;4976407;28;20220;-53
2024/01/21 03:49:17;;;;;;;6.80;4.60;;;2.10;99.90;;;;;;4976328;28;20177;-53
2024/01/21 03:51:43;;;;;;;7.07;5.10;;;2.00;99.90;;;;;;4976240;28;20186;-52
2024/01/21 03:54:09;;;;;;;7.07;5.20;;;2.00;99.90;;;;;;4976414;28;20188;-50
2024/01/21 03:56:34;;;;;;;6.83;4.97;;;1.90;99.90;;;;;;4976328;28;20224;-52
2024/01/21 03:59:00;;;;;;;9.03;4.80;;;2.00;99.90;;;;;;4976229;28;20177;-54
2024/01/21 04:01:25;;;;;;;6.43;4.90;;;2.00;99.90;;;;;;4976244;28;20637;-54
2024/01/21 04:03:51;;;;;;;7.60;5.60;;;2.00;99.90;;;;;;4976203;28;20177;-52
2024/01/21 04:06:17;;;;;;;6.57;4.90;;;2.00;99.90;;;;;;4975433;28;20181;-52
2024/01/21 04:08:43;;;;;;;9.00;5.10;;;2.00;99.90;;;;;;4975897;28;20186;-53
2024/01/21 04:11:08;;;;;;;7.83;5.13;;;2.00;99.90;;;;;;4976013;28;20558;-52
2024/01/21 04:13:34;;;;;;;7.23;5.33;;;1.90;99.90;;;;;;4975996;28;20188;-52
2024/01/21 04:16:00;;;;;;;6.20;4.80;;;2.00;99.90;;;;;;4975823;28;20181;-51
2024/01/21 04:18:26;;;;;;;6.87;4.90;;;2.00;99.90;;;;;;4975819;28;20197;-49
2024/01/21 04:20:51;;;;;;;7.33;4.80;;;2.10;99.90;;;;;;4975541;28;20555;-52
2024/01/21 04:23:17;;;;;;;6.70;4.80;;;1.90;99.90;;;;;;4975611;28;20194;-52
2024/01/21 04:25:42;;;;;;;6.37;4.97;;;1.80;99.90;;;;;;4975725;28;20183;-52
2024/01/21 04:28:08;;;;;;;6.67;5.30;;;1.90;99.90;;;;;;4975712;28;20177;-50
2024/01/21 04:30:35;;;;;;;6.80;5.37;;;1.90;99.90;;;;;;4975604;28;20271;-53
2024/01/21 04:33:01;;;;;;;6.60;5.17;;;2.00;99.90;;;;;;4974227;28;20193;-50
2024/01/21 04:35:27;;;;;;;6.77;4.80;;;1.90;99.90;;;;;;4975441;28;20233;-50
2024/01/21 04:37:52;;;;;;;9.27;5.37;;;1.90;99.90;;;;;;4958008;28;20634;-53
2024/01/21 04:40:18;;;;;;;7.37;5.43;;;2.00;99.90;;;;;;4975493;28;20177;-52
2024/01/21 04:42:44;;;;;;;6.73;5.07;;;2.10;99.90;;;;;;4975383;28;20359;-53
2024/01/21 04:45:09;;;;;;;5.47;4.93;;;2.10;99.90;;;;;;4975395;28;20227;-52
2024/01/21 04:47:35;;;;;;;6.60;4.70;;;2.10;99.90;;;;;;4975469;28;20248;-52
2024/01/21 04:50:01;;;;;;;7.80;5.43;;;2.00;99.90;;;;;;4975315;28;20646;-52
2024/01/21 04:52:27;;;;;;;5.50;4.73;;;2.10;99.90;;;;;;4975078;28;20181;-53
2024/01/21 04:54:53;;;;;;;7.10;4.80;;;2.10;99.90;;;;;;4975283;28;20259;-51
2024/01/21 04:57:18;;;;;;;7.03;4.93;;;2.00;99.90;;;;;;4975148;28;20234;-51
2024/01/21 04:59:44;;;;;;;8.53;5.23;;;1.90;99.90;;;;;;4975188;28;20186;-52
2024/01/21 05:02:10;;;;;;;6.43;5.00;;;1.90;99.90;;;;;;4974855;28;20318;-52
2024/01/21 05:04:35;;;;;;;6.83;4.97;;;2.00;99.90;;;;;;4975381;28;20288;-53
2024/01/21 05:07:01;;;;;;;8.37;5.50;;;2.00;99.90;;;;;;4974919;28;20204;-53
2024/01/21 05:09:26;;;;;;;5.80;4.80;;;2.00;99.90;;;;;;4975149;28;20185;-53
2024/01/21 05:11:52;;;;;;;7.20;5.37;;;2.10;99.90;;;;;;4975139;28;20185;-51
2024/01/21 05:14:18;;;;;;;6.43;5.33;;;2.00;99.90;;;;;;4975122;28;20186;-52
2024/01/21 05:16:44;;;;;;;7.63;5.20;;;1.90;99.90;;;;;;4974781;28;20200;-53
2024/01/21 05:19:09;;;;;;;7.40;4.97;;;2.00;99.90;;;;;;4974225;28;20535;-50
2024/01/21 05:21:35;;;;;;;6.93;5.03;;;2.00;99.90;;;;;;4974592;28;20224;-53
2024/01/21 05:24:01;;;;;;;7.23;4.93;;;2.00;99.90;;;;;;4974977;28;20657;-51
2024/01/21 05:26:26;;;;;;;5.47;4.50;;;2.00;99.90;;;;;;4974898;28;20183;-52
2024/01/21 05:28:55;;;;;;;8.87;5.67;;;2.00;99.90;;;;;;4974688;28;20181;-52
2024/01/21 05:31:21;;;;;;;6.67;5.27;;;2.00;99.90;;;;;;4974641;28;20193;-52
2024/01/21 05:33:47;;;;;;;6.60;5.47;;;2.00;99.90;;;;;;4974561;28;20185;-53
2024/01/21 05:36:12;;;;;;;6.63;4.70;;;2.10;99.90;;;;;;4974448;28;20546;-54
2024/01/21 05:38:38;;;;;;;6.47;4.60;;;2.10;99.90;;;;;;4974461;28;20264;-54
2024/01/21 05:41:04;;;;;;;7.43;4.93;;;2.20;99.90;;;;;;4974805;28;20221;-52
2024/01/21 05:43:30;;;;;;;6.77;5.13;;;2.10;99.90;;;;;;4974561;28;20578;-54
2024/01/21 05:45:56;;;;;;;6.57;5.03;;;2.10;99.90;;;;;;4974320;28;20197;-53
2024/01/21 05:48:21;;;;;;;6.67;5.10;;;2.10;99.90;;;;;;4974527;28;20185;-50
2024/01/21 05:50:47;;;;;;;8.03;5.23;;;2.10;99.90;;;;;;4974323;28;20181;-54
2024/01/21 05:53:12;;;;;;;6.80;5.07;;;2.10;99.90;;;;;;4974690;28;20185;-51
2024/01/21 05:55:38;;;;;;;7.03;4.80;;;2.10;99.90;;;;;;4974784;28;20636;-58
2024/01/21 05:58:04;;;;;;;7.43;4.93;;;2.10;99.90;;;;;;4974497;28;20189;-52
2024/01/21 06:00:29;;;;;;;7.50;5.07;;;2.20;99.90;;;;;;4977674;28;20229;-50
2024/01/21 06:02:55;;;;;;;6.53;4.87;;;2.20;99.90;;;;;;4993703;28;20699;-52
2024/01/21 06:05:20;;;;;;;6.40;5.53;;;2.20;99.90;;;;;;4993666;28;20176;-52
2024/01/21 06:07:46;;;;;;;6.97;4.63;;;2.30;99.90;;;;;;4993865;28;20185;-52
2024/01/21 06:10:12;;;;;;;6.93;5.20;;;2.20;99.90;;;;;;4993799;28;20186;-55
2024/01/21 06:12:37;;;;;;;6.50;5.30;;;2.20;99.90;;;;;;4993692;28;20189;-48
2024/01/21 06:15:04;;;;;;;5.70;4.43;;;2.30;99.90;;;;;;4993903;28;20187;-53
2024/01/21 06:17:30;;;;;;;5.57;4.73;;;2.20;99.90;;;;;;4993661;28;20666;-53
2024/01/21 06:19:57;;;;;;;5.60;4.67;;;2.20;99.90;;;;;;4992304;28;20185;-53
2024/01/21 06:22:22;;;;;;;5.53;4.77;;;2.20;99.90;;;;;;4993464;28;20669;-54
2024/01/21 06:24:48;;;;;;;6.13;4.80;;;2.30;99.90;;;;;;4993702;28;20176;-51
2024/01/21 06:27:14;;;;;;;7.00;5.10;;;2.40;99.90;;;;;;4993483;28;20180;-49
2024/01/21 06:29:43;;;;;;;8.07;4.90;;;2.40;99.90;;;;;;4995577;28;20556;-54
2024/01/21 06:32:09;;;;;;;6.80;5.47;;;2.40;99.90;;;;;;4997140;28;20635;-52
2024/01/21 06:34:35;;;;;;;6.73;5.00;;;2.40;99.90;;;;;;4997179;28;20173;-51
2024/01/21 06:37:00;;;;;;;6.10;4.97;;;2.40;99.90;;;;;;4997359;28;20584;-53
2024/01/21 06:39:26;;;;;;;6.40;5.23;;;2.40;99.90;;;;;;4997583;28;20189;-51
2024/01/21 06:41:52;;;;;;;7.23;4.80;;;2.40;99.90;;;;;;4996970;28;20216;-52
2024/01/21 06:44:18;;;;;;;5.27;4.63;;;2.30;99.90;;;;;;4997095;28;20177;-52
2024/01/21 06:46:43;;;;;;;5.50;4.57;;;2.30;99.90;;;;;;4996941;28;20195;-50
2024/01/21 06:49:09;;;;;;;7.00;4.87;;;2.30;99.90;;;;;;4981392;28;20197;-52
2024/01/21 06:51:43;;;;;;;6.77;4.97;;;2.30;99.90;;;;;;4969978;28;20713;-52
2024/01/21 06:54:09;;;;;;;5.53;4.87;;;2.30;99.90;;;;;;4965548;28;20216;-52
2024/01/21 06:56:35;;;;;;;7.97;4.57;;;2.30;99.90;;;;;;4968239;28;20178;-53
2024/01/21 06:59:00;;;;;;;5.73;5.00;;;2.30;99.90;;;;;;4968936;28;20245;-51
2024/01/21 07:01:26;;;;;;;7.80;4.60;;;2.40;99.90;;;;;;4975518;28;20222;-50
2024/01/21 07:03:52;;;;;;;6.93;5.27;;;2.40;99.90;;;;;;4984210;28;20181;-50
2024/01/21 07:06:18;;;;;;;6.97;4.97;;;2.40;99.90;;;;;;4976746;28;20241;-54
2024/01/21 07:08:43;;;;;;;6.77;5.13;;;2.40;99.90;;;;;;4977125;28;20183;-52
2024/01/21 07:11:10;;;;;;;6.07;4.67;;;2.40;99.90;;;;;;4976913;28;20189;-54
2024/01/21 07:13:36;;;;;;;6.63;4.83;;;2.40;99.90;;;;;;4976911;28;20174;-55
2024/01/21 07:16:03;;;;;;;6.17;4.77;;;2.30;99.90;;;;;;4976889;28;20181;-53
2024/01/21 07:18:28;;;;;;;7.57;4.90;;;2.30;99.90;;;;;;4976611;28;20185;-56
2024/01/21 07:20:54;;;;;;;8.67;4.97;;;2.40;99.90;;;;;;4976961;28;20202;-53
2024/01/21 07:23:20;;;;;;;7.43;5.03;;;2.50;99.90;;;;;;4976958;28;20181;-47
2024/01/21 07:25:47;;;;;;;8.27;5.23;;;2.50;99.90;;;;;;4976855;28;20671;-54
2024/01/21 07:28:13;;;;;;;6.40;5.07;;;2.60;99.90;;;;;;4977042;28;20177;-52
2024/01/21 07:30:38;;;;;;;6.30;4.90;;;2.70;99.90;;;;;;4976558;28;20554;-52
2024/01/21 07:33:04;;;;;;;7.73;5.30;;;2.80;99.90;;;;;;4976609;28;20177;-54
2024/01/21 07:35:30;;;;;;;6.33;5.13;;;2.70;99.90;;;;;;4976743;28;20182;-53
2024/01/21 07:37:55;;;;;;;7.80;4.97;;;2.80;99.90;;;;;;4976673;28;20257;-54
2024/01/21 07:40:22;;;;;;;6.60;5.00;;;2.80;99.90;;;;;;4975762;28;20230;-55
2024/01/21 07:42:47;;;;;;;7.07;5.50;;;2.80;99.90;;;;;;4976338;28;20225;-52
2024/01/21 07:45:13;;;;;;;5.97;5.00;;;2.80;99.90;;;;;;4974651;28;20727;-52
2024/01/21 07:47:39;;;;;;;7.07;5.00;;;2.90;99.90;;;;;;4976134;28;20188;-54
2024/01/21 07:50:05;;;;;;;6.97;5.43;;;2.90;99.90;;;;;;4976232;28;20590;-52
2024/01/21 07:52:30;;;;;;;7.50;5.30;;;3.00;99.90;;;;;;4975053;28;20194;-51
2024/01/21 07:54:56;;;;;;;7.70;5.77;;;2.90;99.90;;;;;;4976359;28;20183;-51
2024/01/21 07:57:22;;;;;;;6.60;5.53;;;3.00;99.90;;;;;;4976170;28;20509;-52
2024/01/21 07:59:47;;;;;;;7.23;5.73;;;2.90;99.90;;;;;;4976177;28;20177;-52
2024/01/21 08:02:13;;;;;;;8.17;5.97;;;3.00;99.90;;;;;;4993207;28;20229;-54
2024/01/21 08:04:39;;;;;;;7.27;5.90;;;2.90;99.90;;;;;;4995752;28;20187;-52
2024/01/21 08:07:04;;;;;;;7.97;5.87;;;2.90;99.90;;;;;;4995606;28;20181;-51
2024/01/21 08:09:30;;;;;;;8.20;6.03;;;2.90;99.90;;;;;;4995577;28;20264;-51
2024/01/21 08:11:56;;;;;;;7.07;5.80;;;3.10;99.90;;;;;;4995423;28;20196;-51
2024/01/21 08:14:21;;;;;;;6.77;5.43;;;3.10;99.90;;;;;;4995443;28;20187;-50
2024/01/21 08:16:47;;;;;;;9.87;6.17;;;3.00;99.90;;;;;;4995319;28;20583;-49
2024/01/21 08:19:15;;;;;;;8.30;5.90;;;3.00;99.90;;;;;;4995479;28;20254;-52
2024/01/21 08:21:40;;;;;;;7.80;6.17;;;3.10;99.90;;;;;;4995523;28;20228;-50
2024/01/21 08:24:06;;;;;;;7.93;6.30;;;3.10;99.90;;;;;;4995214;28;20668;-51
2024/01/21 08:26:32;;;;;;;8.10;6.33;;;3.10;99.90;;;;;;4995539;28;20184;-53
2024/01/21 08:28:58;;;;;;;6.47;5.57;;;3.20;99.90;;;;;;4995189;28;20260;-51
2024/01/21 08:31:23;;;;;;;7.17;5.47;;;3.40;99.90;;;;;;4994851;28;20197;-51
2024/01/21 08:33:49;;;;;;;8.73;6.30;;;3.20;99.90;;;;;;4994063;28;20304;-51
2024/01/21 08:36:15;;;;;;;8.23;6.23;;;3.20;99.90;;;;;;4995067;28;20689;-48
2024/01/21 08:38:41;;;;;;;8.33;6.57;;;3.20;99.90;;;;;;4994290;28;20200;-51
2024/01/21 08:41:07;;;;;;;7.83;6.60;;;3.30;99.90;;;;;;4989922;28;20331;-54
2024/01/21 08:43:32;;;;;;;9.67;7.13;;;3.40;99.90;;;;;;4992494;28;20212;-51
2024/01/21 08:45:58;;;;;;;8.60;6.57;;;3.30;99.90;;;;;;4981643;28;20327;-48
2024/01/21 08:48:24;;;;;;;8.33;6.67;;;3.40;99.90;;;;;;4978711;28;20669;-52
2024/01/21 08:50:49;;;;;;;9.33;6.13;;;3.40;99.90;;;;;;4993811;28;20601;-51
2024/01/21 08:53:15;;;;;;;8.23;5.97;;;3.40;99.90;;;;;;4993993;28;20551;-51
2024/01/21 08:55:41;;;;;;;9.77;6.10;;;3.50;99.90;;;;;;4994373;28;20180;-49
2024/01/21 08:58:06;;;;;;;8.10;6.17;;;3.40;99.90;;;;;;4992713;28;20184;-54
2024/01/21 09:00:32;;;;;;;8.93;6.93;;;3.40;99.90;;;;;;4979419;28;20237;-53
2024/01/21 09:02:58;;;;;;;8.63;6.67;;;3.50;99.90;;;;;;4973174;28;20212;-50
2024/01/21 09:05:23;;;;;;;9.07;6.57;;;3.50;99.90;;;;;;4972884;28;20244;-52
2024/01/21 09:07:49;;;;;;;9.60;6.33;;;3.50;99.90;;;;;;4974819;28;20304;-50
2024/01/21 09:10:15;;;;;;;8.27;6.23;;;3.50;99.90;;;;;;4974612;28;20177;-52
2024/01/21 09:12:40;;;;;;;8.43;6.10;;;3.60;99.90;;;;;;4974780;28;20185;-53
2024/01/21 09:15:07;;;;;;;7.83;6.00;;;3.50;99.90;;;;;;4974707;28;20200;-50
2024/01/21 09:17:33;;;;;;;8.90;5.80;;;3.60;99.90;;;;;;4974656;28;20568;-49
2024/01/21 09:19:59;;;;;;;8.57;6.00;;;3.70;99.90;;;;;;4974802;28;20185;-50
2024/01/21 09:22:25;;;;;;;6.77;5.83;;;3.80;99.90;;;;;;4974634;28;20224;-48
2024/01/21 09:24:51;;;;;;;8.63;6.43;;;3.70;99.90;;;;;;4974082;28;20188;-48
2024/01/21 09:27:16;;;;;;;8.60;6.40;;;3.80;99.90;;;;;;4973327;28;20183;-48
2024/01/21 09:29:43;;;;;;;7.07;5.87;;;3.80;99.90;;;;;;4974398;28;20551;-50
2024/01/21 09:32:11;;;;;;;9.43;5.97;;;4.00;99.90;;;;;;4974204;28;20287;-52
2024/01/21 09:34:39;;;;;;;9.07;6.30;;;3.90;99.90;;;;;;4974552;28;20185;-48
2024/01/21 09:37:05;;;;;;;8.27;6.07;;;3.90;99.90;;;;;;4965924;28;20225;-50
2024/01/21 09:39:31;;;;;;;8.57;6.13;;;3.90;99.90;;;;;;4955318;28;20182;-48
2024/01/21 09:41:58;;;;;;;7.25;6.20;;;4.00;99.90;;;;;;4970080;28;20210;-49
2024/01/21 09:44:28;;;;;;;7.40;5.88;;;4.00;99.90;;;;;;4963160;28;20181;-51
2024/01/21 09:46:57;;;;;;;7.30;5.85;;;4.00;99.90;;;;;;4958564;28;20249;-48
2024/01/21 09:49:24;;;;;;;8.07;5.53;;;4.20;99.90;;;;;;4955121;28;20185;-49
2024/01/21 09:51:50;;;;;;;9.73;5.95;;;4.20;99.90;;;;;;4954622;28;20181;-52
2024/01/21 09:54:17;;;;;;;6.97;6.00;;;4.30;99.90;;;;;;4954532;28;20574;-49
2024/01/21 09:56:43;;;;;;;7.97;5.95;;;4.40;99.90;;;;;;4954996;28;20251;-48
2024/01/21 09:59:10;;;;;;;8.33;6.03;;;4.30;99.90;;;;;;4954965;28;20646;-50
2024/01/21 10:01:40;;;;;;;7.32;5.95;;;4.40;99.90;;;;;;4978829;28;20244;-57
2024/01/21 10:04:10;;;;;;;8.40;5.78;;;4.40;99.90;;;;;;4994689;28;20300;-56
2024/01/21 10:06:36;;;;;;;7.40;6.18;;;4.60;99.90;;;;;;4997787;28;20184;-54
2024/01/21 10:09:29;;;;;;;7.97;6.28;;;4.70;99.90;;;;;;4997663;28;20187;-57
2024/01/21 10:11:59;;;;;;;7.72;6.00;;;4.80;99.90;;;;;;4995083;28;20208;-54
2024/01/21 10:14:26;;;;;;;5.80;5.20;;;5.00;99.90;;;;;;4998049;28;20195;-56
2024/01/21 10:16:52;;;;;;;10.18;5.80;;;5.00;99.90;;;;;;4997678;28;20172;-56
2024/01/21 10:19:35;;;;;;;5.75;5.18;;;5.10;99.90;;;;;;4997496;28;20227;-55
2024/01/21 10:22:15;;;;;;;6.93;5.35;;;5.10;99.90;;;;;;4997343;28;20215;-55
2024/01/21 10:24:42;;;;;;;7.38;5.60;;;5.20;99.90;;;;;;4997539;28;20185;-54
2024/01/21 10:27:09;;;;;;;6.03;5.30;;;5.20;99.90;;;;;;4997567;28;20227;-53
2024/01/21 10:29:41;;;;;;;7.07;5.30;;;5.10;99.90;;;;;;4997337;28;20634;-57
2024/01/21 10:32:09;;;;;;;6.40;5.30;;;5.10;99.90;;;;;;4997307;28;20278;-55
2024/01/21 10:34:39;;;;;;;7.80;5.50;;;5.30;99.90;;;;;;4997113;28;20180;-54
2024/01/21 10:37:05;;;;;;;6.57;5.50;;;5.30;99.90;;;;;;4997461;28;20521;-57
2024/01/21 10:39:34;;;;;;;8.15;5.30;;;5.20;99.90;;;;;;4996194;28;20188;-56
2024/01/21 10:42:01;;;;;;;7.10;5.25;;;5.20;99.90;;;;;;4997147;28;20262;-56
2024/01/21 10:44:27;;;;;;;5.70;4.90;;;5.20;99.90;;;;;;4997324;28;20180;-56
2024/01/21 10:46:54;;;;;;;6.95;5.32;;;5.30;99.90;;;;;;4997106;28;20259;-56
2024/01/21 10:49:20;;;;;;;6.15;5.32;;;5.40;99.90;;;;;;4996809;28;20176;-54
2024/01/21 10:51:46;;;;;;;7.47;6.00;;;5.30;99.90;;;;;;4997042;28;20546;-57
2024/01/21 10:54:16;;;;;;;7.03;5.20;;;5.20;99.90;;;;;;4997071;28;20184;-56
2024/01/21 10:56:43;;;;;;;6.85;5.68;;;5.30;99.90;;;;;;4996930;28;20178;-54
2024/01/21 10:59:10;;;;;;;6.13;5.20;;;5.20;99.90;;;;;;4996792;28;20174;-52
2024/01/21 11:01:39;;;;;;;7.60;5.50;;;5.10;99.90;;;;;;4996426;28;20237;-56
2024/01/21 11:04:12;;;;;;;5.90;5.07;;;5.20;99.90;;;;;;4995635;28;20530;-54
2024/01/21 11:06:48;;;;;;;7.43;4.90;;;5.20;99.90;;;;;;4996856;28;20645;-56
2024/01/21 11:09:16;;;;;;;6.93;5.72;;;5.20;99.90;;;;;;4996722;28;20239;-52
2024/01/21 11:11:49;;;;;;;8.20;5.63;;;5.20;99.90;;;;;;4996574;28;20192;-55
2024/01/21 11:14:33;;;;;;;7.15;5.28;;;5.30;99.90;;;;;;4996544;28;20638;-55
2024/01/21 11:17:01;;;;;;;6.30;5.32;;;5.30;99.90;;;;;;4995336;28;20212;-54
2024/01/21 11:19:48;;;;;;;7.65;5.22;;;5.30;99.90;;;;;;4996293;28;20600;-54
2024/01/21 11:22:16;;;;;;;6.50;5.65;;;5.30;99.90;;;;;;4996373;28;20219;-54
2024/01/21 11:24:43;;;;;;;8.52;5.25;;;5.40;99.90;;;;;;4996286;28;20182;-54
2024/01/21 11:27:21;;;;;;;7.30;5.18;;;5.50;99.90;;;;;;4996565;28;20176;-56
2024/01/21 11:29:53;;;;;;;7.03;5.55;;;5.60;99.90;;;;;;4995917;28;20634;-57
2024/01/21 11:32:26;;;;;;;8.00;5.40;;;5.60;99.90;;;;;;4995635;28;20278;-56
2024/01/21 11:34:52;;;;;;;7.72;5.32;;;5.50;99.90;;;;;;4995432;28;20183;-57
2024/01/21 11:37:18;;;;;;;7.53;5.47;;;5.50;99.90;;;;;;4995300;28;20188;-56
2024/01/21 11:39:45;;;;;;;6.78;5.28;;;5.50;99.90;;;;;;4995606;28;20177;-57
2024/01/21 11:42:11;;;;;;;6.03;5.10;;;5.50;99.90;;;;;;4995367;28;20216;-56
2024/01/21 11:44:39;;;;;;;6.78;4.90;;;5.50;99.90;;;;;;4995464;28;20210;-55
2024/01/21 11:47:06;;;;;;;7.68;5.53;;;5.60;99.90;;;;;;4995335;28;20227;-55
2024/01/21 11:49:36;;;;;;;6.68;5.22;;;5.60;99.90;;;;;;4995248;28;20197;-55
2024/01/21 11:52:06;;;;;;;8.73;4.97;;;5.80;99.90;;;;;;4995383;28;20199;-57
2024/01/21 11:54:33;;;;;;;5.88;5.10;;;5.70;99.90;;;;;;4995352;28;20174;-57
2024/01/21 11:57:00;;;;;;;7.20;5.60;;;5.80;99.90;;;;;;4995193;28;20539;-57
2024/01/21 11:59:26;;;;;;;7.05;5.55;;;5.90;99.90;;;;;;4995016;28;20193;-56
2024/01/21 12:01:55;;;;;;;6.43;5.50;;;5.90;99.90;;;;;;4994593;28;20362;-53
2024/01/21 12:04:22;;;;;;;6.88;5.78;;;5.80;99.90;;;;;;4994766;28;20188;-56
2024/01/21 12:06:49;;;;;;;5.32;4.82;;;5.80;99.90;;;;;;4994969;28;20189;-56
2024/01/21 12:09:15;;;;;;;6.45;5.63;;;5.70;99.90;;;;;;4994881;28;20255;-57
2024/01/21 12:11:41;;;;;;;7.25;6.03;;;5.70;99.90;;;;;;4994846;28;20216;-55
2024/01/21 12:14:09;;;;;;;6.95;5.82;;;5.80;99.90;;;;;;4994615;28;20252;-55
2024/01/21 12:16:36;;;;;;;7.38;5.03;;;6.00;99.90;;;;;;4994744;28;20177;-58
2024/01/21 12:19:02;;;;;;;7.28;5.68;;;6.10;99.90;;;;;;4994575;28;20700;-56
2024/01/21 12:21:29;;;;;;;6.22;5.45;;;6.00;99.90;;;;;;4994648;28;20239;-56
2024/01/21 12:23:57;;;;;;;8.43;5.10;;;6.00;99.90;;;;;;4994742;28;20189;-55
2024/01/21 12:26:24;;;;;;;7.30;5.25;;;6.10;99.90;;;;;;4994134;28;20204;-57
2024/01/21 12:28:57;;;;;;;8.02;5.57;;;6.10;99.90;;;;;;4994376;28;20181;-56
2024/01/21 12:31:39;;;;;;;5.95;5.10;;;6.10;99.90;;;;;;4994325;28;20189;-57
2024/01/21 12:34:06;;;;;;;7.18;5.65;;;6.00;99.90;;;;;;4994837;28;20243;-54
2024/01/21 12:36:41;;;;;;;9.95;6.00;;;6.10;99.90;;;;;;4994437;28;20169;-55
2024/01/21 12:39:09;;;;;;;9.18;6.10;;;6.00;99.90;;;;;;4994148;28;20190;-54
2024/01/21 12:41:35;;;;;;;7.25;6.00;;;6.00;99.90;;;;;;4994452;28;20259;-55
2024/01/21 12:44:01;;;;;;;7.65;5.65;;;6.00;99.90;;;;;;4994162;28;20188;-56
2024/01/21 12:46:27;;;;;;;8.20;5.95;;;6.10;99.90;;;;;;4994312;28;20244;-56
2024/01/21 12:48:53;;;;;;;8.20;6.28;;;6.10;99.90;;;;;;4994268;28;20207;-55
2024/01/21 12:51:22;;;;;;;6.93;5.70;;;6.10;99.90;;;;;;4994155;28;20235;-55
2024/01/21 12:53:50;;;;;;;9.75;6.32;;;6.10;99.90;;;;;;4993982;28;20192;-54